AEE201 LGIR-LGSR
Flight info
| Callsign | AEE201 |
|---|---|
| Flight time | 0h 20m |
| Altitude | 14000 |
| Route | NAVUS J62 GIVIS |
| Aircraft | A320/M-SDE3FGHIRWY/LB1 |
Departure
| Time | 2026-04-24 20:30 |
|---|---|
| Airport | Heraklion International Nikos Kazantzakis Airport (LGIR) |
Arrival
| Time | 2026-04-24 20:50 |
|---|---|
| Airport | Santorini International Airport (LGSR) |
| Time | Latitude | Longitude | Altitude | Speed | Heading |
|---|---|---|---|---|---|
| 2026-04-24 20:19 | 35.33812 | 25.17540 | 64 ft | 0 kts | 316° |
| 2026-04-24 20:25 | 35.33819 | 25.17535 | 92 ft | 3 kts | 330° |
| 2026-04-24 20:25 | 35.33846 | 25.17531 | 91 ft | 5 kts | 356° |
| 2026-04-24 20:26 | 35.33886 | 25.17553 | 91 ft | 8 kts | 46° |
| 2026-04-24 20:26 | 35.33904 | 25.17626 | 91 ft | 10 kts | 89° |
| 2026-04-24 20:26 | 35.33897 | 25.17723 | 94 ft | 13 kts | 95° |
| 2026-04-24 20:26 | 35.33888 | 25.17845 | 93 ft | 16 kts | 95° |
| 2026-04-24 20:27 | 35.33877 | 25.17996 | 92 ft | 19 kts | 95° |
| 2026-04-24 20:27 | 35.33866 | 25.18155 | 93 ft | 19 kts | 95° |
| 2026-04-24 20:27 | 35.33853 | 25.18332 | 93 ft | 23 kts | 95° |
| 2026-04-24 20:27 | 35.33839 | 25.18541 | 94 ft | 26 kts | 95° |
| 2026-04-24 20:28 | 35.33826 | 25.18718 | 90 ft | 10 kts | 95° |
| 2026-04-24 20:28 | 35.33819 | 25.18814 | 90 ft | 13 kts | 95° |
| 2026-04-24 20:28 | 35.33829 | 25.18936 | 92 ft | 16 kts | 60° |
| 2026-04-24 20:28 | 35.33900 | 25.18980 | 89 ft | 11 kts | 326° |
| 2026-04-24 20:29 | 35.33913 | 25.18913 | 89 ft | 14 kts | 276° |
| 2026-04-24 20:29 | 35.33948 | 25.18418 | 90 ft | 90 kts | 275° |
| 2026-04-24 20:29 | 35.34018 | 25.17403 | 91 ft | 147 kts | 274° |
| 2026-04-24 20:29 | 35.34100 | 25.16057 | 505 ft | 158 kts | 274° |
| 2026-04-24 20:30 | 35.34380 | 25.14772 | 1180 ft | 158 kts | 302° |
| 2026-04-24 20:30 | 35.35147 | 25.13831 | 1869 ft | 158 kts | 332° |
| 2026-04-24 20:30 | 35.36249 | 25.13468 | 2273 ft | 176 kts | 2° |
| 2026-04-24 20:30 | 35.37470 | 25.13970 | 2594 ft | 201 kts | 38° |
| 2026-04-24 20:31 | 35.38341 | 25.15356 | 3288 ft | 211 kts | 57° |
| 2026-04-24 20:31 | 35.39113 | 25.16906 | 4158 ft | 214 kts | 57° |
| 2026-04-24 20:31 | 35.39894 | 25.18466 | 5056 ft | 215 kts | 58° |
| 2026-04-24 20:31 | 35.40853 | 25.19848 | 5876 ft | 220 kts | 36° |
| 2026-04-24 20:32 | 35.42287 | 25.20604 | 6660 ft | 230 kts | 15° |
| 2026-04-24 20:32 | 35.43902 | 25.21075 | 7075 ft | 254 kts | 14° |
| 2026-04-24 20:32 | 35.45695 | 25.21584 | 7617 ft | 272 kts | 14° |
| 2026-04-24 20:32 | 35.47565 | 25.22109 | 8449 ft | 279 kts | 14° |
| 2026-04-24 20:33 | 35.49469 | 25.22643 | 9330 ft | 283 kts | 14° |
| 2026-04-24 20:33 | 35.51403 | 25.23188 | 10182 ft | 288 kts | 14° |
| 2026-04-24 20:33 | 35.53432 | 25.23767 | 10529 ft | 311 kts | 14° |
| 2026-04-24 20:33 | 35.55619 | 25.24397 | 10767 ft | 334 kts | 14° |
| 2026-04-24 20:34 | 35.57935 | 25.25067 | 11248 ft | 347 kts | 14° |
| 2026-04-24 20:34 | 35.60306 | 25.25752 | 11921 ft | 353 kts | 14° |
| 2026-04-24 20:34 | 35.62713 | 25.26447 | 12623 ft | 358 kts | 13° |
| 2026-04-24 20:34 | 35.65162 | 25.27153 | 13320 ft | 363 kts | 13° |
| 2026-04-24 20:35 | 35.67637 | 25.27864 | 13823 ft | 368 kts | 13° |
| 2026-04-24 20:35 | 35.70143 | 25.28583 | 13945 ft | 371 kts | 13° |
| 2026-04-24 20:35 | 35.72735 | 25.29321 | 13981 ft | 395 kts | 13° |
| 2026-04-24 20:35 | 35.75480 | 25.30098 | 13978 ft | 410 kts | 13° |
| 2026-04-24 20:36 | 35.78278 | 25.30884 | 13975 ft | 413 kts | 13° |
| 2026-04-24 20:36 | 35.81081 | 25.31667 | 13980 ft | 413 kts | 13° |
| 2026-04-24 20:36 | 35.83886 | 25.32452 | 13980 ft | 413 kts | 13° |
| 2026-04-24 20:36 | 35.86695 | 25.33242 | 13973 ft | 413 kts | 13° |
| 2026-04-24 20:37 | 35.89510 | 25.34037 | 13976 ft | 415 kts | 12° |
| 2026-04-24 20:37 | 35.92286 | 25.34822 | 13972 ft | 414 kts | 13° |
| 2026-04-24 20:37 | 35.95096 | 25.35617 | 13973 ft | 414 kts | 12° |
| 2026-04-24 20:37 | 35.97910 | 25.36412 | 13981 ft | 415 kts | 12° |
| 2026-04-24 20:38 | 36.00722 | 25.37206 | 13984 ft | 414 kts | 12° |
| 2026-04-24 20:38 | 36.03533 | 25.37999 | 13984 ft | 414 kts | 12° |
| 2026-04-24 20:38 | 36.06344 | 25.38796 | 13980 ft | 414 kts | 13° |
| 2026-04-24 20:38 | 36.09153 | 25.39598 | 13975 ft | 414 kts | 13° |
| 2026-04-24 20:39 | 36.11962 | 25.40401 | 13982 ft | 414 kts | 13° |
| 2026-04-24 20:39 | 36.14785 | 25.41129 | 13981 ft | 414 kts | 11° |
| 2026-04-24 20:39 | 36.17631 | 25.41744 | 13990 ft | 414 kts | 9° |
| 2026-04-24 20:39 | 36.20480 | 25.42288 | 13992 ft | 414 kts | 8° |
| 2026-04-24 20:40 | 36.23332 | 25.42804 | 13987 ft | 414 kts | 8° |
| 2026-04-24 20:40 | 36.26176 | 25.43326 | 13999 ft | 414 kts | 8° |
| 2026-04-24 20:40 | 36.29030 | 25.43872 | 13995 ft | 414 kts | 9° |
| 2026-04-24 20:40 | 36.31876 | 25.44439 | 14001 ft | 414 kts | 9° |
| 2026-04-24 20:41 | 36.34679 | 25.45013 | 13824 ft | 400 kts | 9° |
| 2026-04-24 20:41 | 36.37360 | 25.45570 | 13689 ft | 381 kts | 9° |
| 2026-04-24 20:41 | 36.39913 | 25.46104 | 13555 ft | 363 kts | 9° |
| 2026-04-24 20:41 | 36.42321 | 25.46605 | 13418 ft | 337 kts | 9° |
| 2026-04-24 20:42 | 36.44534 | 25.47059 | 13114 ft | 318 kts | 10° |
| 2026-04-24 20:42 | 36.46714 | 25.47506 | 12509 ft | 310 kts | 10° |
| 2026-04-24 20:42 | 36.48829 | 25.47941 | 11844 ft | 306 kts | 10° |
| 2026-04-24 20:42 | 36.50914 | 25.48370 | 11192 ft | 303 kts | 11° |
| 2026-04-24 20:43 | 36.52959 | 25.48789 | 10438 ft | 302 kts | 11° |
| 2026-04-24 20:43 | 36.55084 | 25.49224 | 9225 ft | 316 kts | 11° |
| 2026-04-24 20:43 | 36.57298 | 25.49676 | 8049 ft | 324 kts | 11° |
| 2026-04-24 20:43 | 36.59447 | 25.50112 | 7781 ft | 301 kts | 11° |
| 2026-04-24 20:44 | 36.61449 | 25.50508 | 7452 ft | 284 kts | 9° |
| 2026-04-24 20:44 | 36.63389 | 25.50324 | 6906 ft | 280 kts | 343° |
| 2026-04-24 20:44 | 36.65057 | 25.49119 | 6314 ft | 280 kts | 317° |
| 2026-04-24 20:44 | 36.66122 | 25.47121 | 5687 ft | 279 kts | 290° |
| 2026-04-24 20:45 | 36.66378 | 25.44744 | 5052 ft | 280 kts | 264° |
| 2026-04-24 20:45 | 36.65848 | 25.42430 | 4398 ft | 279 kts | 250° |
| 2026-04-24 20:45 | 36.65135 | 25.40195 | 3835 ft | 275 kts | 244° |
| 2026-04-24 20:45 | 36.63919 | 25.38462 | 3630 ft | 262 kts | 212° |
| 2026-04-24 20:46 | 36.62251 | 25.37762 | 3514 ft | 248 kts | 180° |
| 2026-04-24 20:46 | 36.60621 | 25.38137 | 3413 ft | 233 kts | 156° |
| 2026-04-24 20:46 | 36.59142 | 25.38840 | 3297 ft | 222 kts | 155° |
| 2026-04-24 20:46 | 36.57724 | 25.39514 | 3190 ft | 216 kts | 155° |
| 2026-04-24 20:47 | 36.56324 | 25.40179 | 3087 ft | 215 kts | 156° |
| 2026-04-24 20:47 | 36.54923 | 25.40843 | 3002 ft | 215 kts | 156° |
| 2026-04-24 20:47 | 36.53530 | 25.41502 | 2768 ft | 218 kts | 155° |
| 2026-04-24 20:47 | 36.52108 | 25.42176 | 2453 ft | 218 kts | 156° |
| 2026-04-24 20:48 | 36.50694 | 25.42842 | 2178 ft | 217 kts | 156° |
| 2026-04-24 20:48 | 36.49308 | 25.43492 | 1888 ft | 208 kts | 156° |
| 2026-04-24 20:48 | 36.47988 | 25.44112 | 1598 ft | 199 kts | 157° |
| 2026-04-24 20:48 | 36.46727 | 25.44704 | 1332 ft | 186 kts | 157° |
| 2026-04-24 20:49 | 36.45596 | 25.45234 | 1120 ft | 163 kts | 156° |
| 2026-04-24 20:49 | 36.44576 | 25.45713 | 878 ft | 153 kts | 156° |
| 2026-04-24 20:49 | 36.43599 | 25.46180 | 645 ft | 148 kts | 156° |
| 2026-04-24 20:49 | 36.42657 | 25.46641 | 459 ft | 147 kts | 156° |
| 2026-04-24 20:50 | 36.41699 | 25.47086 | 278 ft | 146 kts | 158° |
| 2026-04-24 20:50 | 36.40750 | 25.47527 | 100 ft | 144 kts | 158° |
| 2026-04-24 20:50 | 36.39947 | 25.47910 | 55 ft | 87 kts | 160° |
| 2026-04-24 20:50 | 36.39644 | 25.48049 | 54 ft | 23 kts | 156° |
| 2026-04-24 20:51 | 36.39540 | 25.48109 | 53 ft | 12 kts | 144° |
| 2026-04-24 20:51 | 36.39502 | 25.48109 | 52 ft | 1 kts | 285° |
| 2026-04-24 20:51 | 36.39542 | 25.48087 | 53 ft | 9 kts | 340° |
| 2026-04-24 20:51 | 36.39616 | 25.48054 | 50 ft | 13 kts | 340° |
| 2026-04-24 20:52 | 36.39711 | 25.48011 | 54 ft | 16 kts | 340° |
| 2026-04-24 20:52 | 36.39759 | 25.47901 | 53 ft | 15 kts | 254° |
| 2026-04-24 20:52 | 36.39792 | 25.47810 | 52 ft | 14 kts | 333° |
| 2026-04-24 20:52 | 36.39893 | 25.47761 | 49 ft | 17 kts | 339° |
| 2026-04-24 20:53 | 36.40015 | 25.47703 | 52 ft | 20 kts | 339° |
| 2026-04-24 20:53 | 36.40128 | 25.47650 | 52 ft | 16 kts | 339° |
| 2026-04-24 20:53 | 36.40242 | 25.47595 | 52 ft | 19 kts | 331° |
| 2026-04-24 20:53 | 36.40302 | 25.47464 | 52 ft | 18 kts | 323° |
| 2026-04-24 20:54 | 36.40366 | 25.47420 | 51 ft | 0 kts | 31° |
| 2026-04-24 20:54 | 36.40367 | 25.47421 | 52 ft | 0 kts | 31° |